sensor_id;sensor_type;location;lat;lon;timestamp;pressure;altitude;pressure_sealevel;temperature;humidity
38630;BME280;24384;51.988;4.644;2023-09-19T00:02:16;100703.69;;;14.55;100.00
38630;BME280;24384;51.988;4.644;2023-09-19T00:04:41;100704.53;;;14.56;100.00
38630;BME280;24384;51.988;4.644;2023-09-19T00:07:08;100708.44;;;14.48;100.00
38630;BME280;24384;51.988;4.644;2023-09-19T00:09:34;100717.03;;;14.54;100.00
38630;BME280;24384;51.988;4.644;2023-09-19T00:12:06;100717.63;;;14.59;98.70
38630;BME280;24384;51.988;4.644;2023-09-19T00:14:34;100721.81;;;14.64;97.55
38630;BME280;24384;51.988;4.644;2023-09-19T00:17:01;100728.34;;;14.57;98.52
38630;BME280;24384;51.988;4.644;2023-09-19T00:19:31;100724.06;;;14.72;98.40
38630;BME280;24384;51.988;4.644;2023-09-19T00:21:57;100719.44;;;14.76;97.15
38630;BME280;24384;51.988;4.644;2023-09-19T00:24:23;100727.78;;;14.85;96.93
38630;BME280;24384;51.988;4.644;2023-09-19T00:26:48;100726.31;;;14.80;97.82
38630;BME280;24384;51.988;4.644;2023-09-19T00:29:13;100726.47;;;14.77;96.13
38630;BME280;24384;51.988;4.644;2023-09-19T00:31:43;100729.28;;;14.74;97.51
38630;BME280;24384;51.988;4.644;2023-09-19T00:34:08;100726.47;;;14.77;97.38
38630;BME280;24384;51.988;4.644;2023-09-19T00:36:35;100730.47;;;14.68;97.78
38630;BME280;24384;51.988;4.644;2023-09-19T00:39:01;100732.03;;;14.72;97.36
38630;BME280;24384;51.988;4.644;2023-09-19T00:41:27;100726.88;;;14.69;97.29
38630;BME280;24384;51.988;4.644;2023-09-19T00:43:55;100733.97;;;14.68;96.48
38630;BME280;24384;51.988;4.644;2023-09-19T00:46:20;100734.13;;;14.65;95.64
38630;BME280;24384;51.988;4.644;2023-09-19T00:48:46;100740.22;;;14.67;94.74
38630;BME280;24384;51.988;4.644;2023-09-19T00:51:12;100735.94;;;14.65;95.96
38630;BME280;24384;51.988;4.644;2023-09-19T00:53:39;100736.47;;;14.72;94.95
38630;BME280;24384;51.988;4.644;2023-09-19T00:56:04;100741.94;;;14.68;94.78
38630;BME280;24384;51.988;4.644;2023-09-19T00:58:33;100741.47;;;14.60;94.74
38630;BME280;24384;51.988;4.644;2023-09-19T01:01:01;100739.88;;;14.56;95.87
38630;BME280;24384;51.988;4.644;2023-09-19T01:03:27;100745.25;;;14.55;96.78
38630;BME280;24384;51.988;4.644;2023-09-19T01:05:52;100748.56;;;14.60;96.43
38630;BME280;24384;51.988;4.644;2023-09-19T01:08:18;100750.22;;;14.62;94.88
38630;BME280;24384;51.988;4.644;2023-09-19T01:10:51;100745.41;;;14.51;98.06
38630;BME280;24384;51.988;4.644;2023-09-19T01:13:30;100745.56;;;14.48;99.05
38630;BME280;24384;51.988;4.644;2023-09-19T01:21:28;100760.06;;;14.60;97.46
38630;BME280;24384;51.988;4.644;2023-09-19T01:29:46;100750.94;;;14.66;99.57
38630;BME280;24384;51.988;4.644;2023-09-19T01:32:18;100747.09;;;14.72;99.18
38630;BME280;24384;51.988;4.644;2023-09-19T01:34:57;100756.78;;;14.73;98.43
38630;BME280;24384;51.988;4.644;2023-09-19T01:37:29;100756.53;;;14.77;99.79
38630;BME280;24384;51.988;4.644;2023-09-19T01:40:01;100758.94;;;14.82;99.24
38630;BME280;24384;51.988;4.644;2023-09-19T01:42:45;100758.09;;;14.81;100.00
38630;BME280;24384;51.988;4.644;2023-09-19T01:45:30;100756.59;;;14.76;100.00
38630;BME280;24384;51.988;4.644;2023-09-19T01:48:07;100755.59;;;14.78;100.00
38630;BME280;24384;51.988;4.644;2023-09-19T01:50:50;100763.56;;;14.78;100.00
38630;BME280;24384;51.988;4.644;2023-09-19T01:53:28;100762.00;;;14.74;100.00
38630;BME280;24384;51.988;4.644;2023-09-19T01:55:58;100757.53;;;14.75;99.86
38630;BME280;24384;51.988;4.644;2023-09-19T01:58:37;100759.28;;;14.76;100.00
38630;BME280;24384;51.988;4.644;2023-09-19T02:01:05;100755.84;;;14.74;99.07
38630;BME280;24384;51.988;4.644;2023-09-19T02:03:34;100750.84;;;14.67;99.11
38630;BME280;24384;51.988;4.644;2023-09-19T02:06:00;100759.91;;;14.63;100.00
38630;BME280;24384;51.988;4.644;2023-09-19T02:08:26;100760.19;;;14.57;100.00
38630;BME280;24384;51.988;4.644;2023-09-19T02:10:52;100763.59;;;14.59;100.00
38630;BME280;24384;51.988;4.644;2023-09-19T02:13:18;100766.50;;;14.55;100.00
38630;BME280;24384;51.988;4.644;2023-09-19T02:15:45;100757.75;;;14.53;99.89
38630;BME280;24384;51.988;4.644;2023-09-19T02:18:10;100767.69;;;14.49;98.72
38630;BME280;24384;51.988;4.644;2023-09-19T02:20:37;100762.31;;;14.50;99.08
38630;BME280;24384;51.988;4.644;2023-09-19T02:23:05;100761.25;;;14.53;98.85
38630;BME280;24384;51.988;4.644;2023-09-19T02:25:31;100768.13;;;14.57;98.22
38630;BME280;24384;51.988;4.644;2023-09-19T02:27:57;100765.88;;;14.49;99.02
38630;BME280;24384;51.988;4.644;2023-09-19T02:30:26;100770.09;;;14.54;99.22
38630;BME280;24384;51.988;4.644;2023-09-19T02:32:51;100769.69;;;14.44;99.07
38630;BME280;24384;51.988;4.644;2023-09-19T02:35:17;100767.84;;;14.46;98.68
38630;BME280;24384;51.988;4.644;2023-09-19T02:37:45;100772.03;;;14.50;98.73
38630;BME280;24384;51.988;4.644;2023-09-19T02:40:10;100768.06;;;14.41;100.00
38630;BME280;24384;51.988;4.644;2023-09-19T02:42:47;100768.16;;;14.40;100.00
38630;BME280;24384;51.988;4.644;2023-09-19T02:45:17;100771.03;;;14.53;99.19
38630;BME280;24384;51.988;4.644;2023-09-19T02:47:46;100773.69;;;14.53;99.49
38630;BME280;24384;51.988;4.644;2023-09-19T02:50:12;100771.25;;;14.48;100.00
38630;BME280;24384;51.988;4.644;2023-09-19T02:52:38;100760.56;;;14.49;100.00
38630;BME280;24384;51.988;4.644;2023-09-19T02:55:06;100766.88;;;14.47;100.00
38630;BME280;24384;51.988;4.644;2023-09-19T02:57:34;100765.41;;;14.41;100.00
38630;BME280;24384;51.988;4.644;2023-09-19T02:59:59;100758.69;;;14.34;100.00
38630;BME280;24384;51.988;4.644;2023-09-19T03:02:26;100767.19;;;14.23;100.00
38630;BME280;24384;51.988;4.644;2023-09-19T03:04:52;100768.91;;;14.24;100.00
38630;BME280;24384;51.988;4.644;2023-09-19T03:07:18;100765.47;;;14.22;100.00
38630;BME280;24384;51.988;4.644;2023-09-19T03:09:43;100761.50;;;14.31;100.00
38630;BME280;24384;51.988;4.644;2023-09-19T03:12:10;100764.22;;;14.12;100.00
38630;BME280;24384;51.988;4.644;2023-09-19T03:14:35;100761.34;;;14.17;100.00
38630;BME280;24384;51.988;4.644;2023-09-19T03:17:01;100767.16;;;14.06;100.00
38630;BME280;24384;51.988;4.644;2023-09-19T03:19:29;100769.50;;;14.12;100.00
38630;BME280;24384;51.988;4.644;2023-09-19T03:21:55;100782.19;;;14.05;100.00
38630;BME280;24384;51.988;4.644;2023-09-19T03:24:22;100771.50;;;14.07;100.00
38630;BME280;24384;51.988;4.644;2023-09-19T03:26:48;100768.22;;;14.02;100.00
38630;BME280;24384;51.988;4.644;2023-09-19T03:29:13;100778.84;;;14.02;100.00
38630;BME280;24384;51.988;4.644;2023-09-19T03:31:39;100766.50;;;14.01;100.00
38630;BME280;24384;51.988;4.644;2023-09-19T03:34:04;100773.63;;;14.00;100.00
38630;BME280;24384;51.988;4.644;2023-09-19T03:36:30;100768.97;;;13.86;100.00
38630;BME280;24384;51.988;4.644;2023-09-19T03:38:55;100761.94;;;13.85;100.00
38630;BME280;24384;51.988;4.644;2023-09-19T03:41:20;100757.59;;;13.84;100.00
38630;BME280;24384;51.988;4.644;2023-09-19T03:43:46;100753.22;;;13.83;100.00
38630;BME280;24384;51.988;4.644;2023-09-19T03:46:11;100758.75;;;13.78;100.00
38630;BME280;24384;51.988;4.644;2023-09-19T03:48:37;100769.41;;;13.77;100.00
38630;BME280;24384;51.988;4.644;2023-09-19T03:51:03;100780.44;;;13.68;100.00
38630;BME280;24384;51.988;4.644;2023-09-19T03:53:28;100774.22;;;13.69;100.00
38630;BME280;24384;51.988;4.644;2023-09-19T03:55:53;100777.03;;;13.66;100.00
38630;BME280;24384;51.988;4.644;2023-09-19T03:58:19;100775.94;;;13.70;100.00
38630;BME280;24384;51.988;4.644;2023-09-19T04:00:45;100782.41;;;13.64;100.00
38630;BME280;24384;51.988;4.644;2023-09-19T04:03:10;100782.88;;;13.72;100.00
38630;BME280;24384;51.988;4.644;2023-09-19T04:05:44;100791.06;;;13.68;100.00
38630;BME280;24384;51.988;4.644;2023-09-19T04:08:09;100778.56;;;13.70;100.00
38630;BME280;24384;51.988;4.644;2023-09-19T04:10:34;100801.78;;;13.65;100.00
38630;BME280;24384;51.988;4.644;2023-09-19T04:13:00;100793.06;;;13.63;100.00
38630;BME280;24384;51.988;4.644;2023-09-19T04:15:26;100808.22;;;13.59;100.00
38630;BME280;24384;51.988;4.644;2023-09-19T04:17:51;100813.53;;;13.59;100.00
38630;BME280;24384;51.988;4.644;2023-09-19T04:20:17;100804.88;;;13.55;100.00
38630;BME280;24384;51.988;4.644;2023-09-19T04:22:43;100803.28;;;13.51;100.00
38630;BME280;24384;51.988;4.644;2023-09-19T04:25:08;100804.22;;;13.50;100.00
38630;BME280;24384;51.988;4.644;2023-09-19T04:27:33;100809.13;;;13.39;100.00
38630;BME280;24384;51.988;4.644;2023-09-19T04:29:59;100814.22;;;13.43;100.00
38630;BME280;24384;51.988;4.644;2023-09-19T04:32:28;100809.94;;;13.41;100.00
38630;BME280;24384;51.988;4.644;2023-09-19T04:34:54;100816.59;;;13.50;100.00
38630;BME280;24384;51.988;4.644;2023-09-19T04:37:24;100807.94;;;13.46;100.00
38630;BME280;24384;51.988;4.644;2023-09-19T04:39:50;100811.28;;;13.50;100.00
38630;BME280;24384;51.988;4.644;2023-09-19T04:42:15;100811.38;;;13.48;100.00
38630;BME280;24384;51.988;4.644;2023-09-19T04:44:40;100820.97;;;13.51;100.00
38630;BME280;24384;51.988;4.644;2023-09-19T04:47:05;100821.53;;;13.57;100.00
38630;BME280;24384;51.988;4.644;2023-09-19T04:49:31;100815.91;;;13.65;100.00
38630;BME280;24384;51.988;4.644;2023-09-19T04:51:56;100823.91;;;13.64;100.00
38630;BME280;24384;51.988;4.644;2023-09-19T04:54:21;100821.53;;;13.57;100.00
38630;BME280;24384;51.988;4.644;2023-09-19T04:56:47;100821.25;;;13.64;100.00
38630;BME280;24384;51.988;4.644;2023-09-19T04:59:13;100823.28;;;13.58;100.00
38630;BME280;24384;51.988;4.644;2023-09-19T05:01:40;100816.38;;;13.54;100.00
38630;BME280;24384;51.988;4.644;2023-09-19T05:04:05;100813.59;;;13.57;100.00
38630;BME280;24384;51.988;4.644;2023-09-19T05:06:30;100825.28;;;13.53;100.00
38630;BME280;24384;51.988;4.644;2023-09-19T05:08:56;100826.41;;;13.48;100.00
38630;BME280;24384;51.988;4.644;2023-09-19T05:11:21;100831.72;;;13.48;100.00
38630;BME280;24384;51.988;4.644;2023-09-19T05:13:48;100836.09;;;13.49;100.00
38630;BME280;24384;51.988;4.644;2023-09-19T05:16:18;100834.28;;;13.49;100.00
38630;BME280;24384;51.988;4.644;2023-09-19T05:18:43;100826.72;;;13.60;100.00
38630;BME280;24384;51.988;4.644;2023-09-19T05:21:08;100828.84;;;13.52;100.00
38630;BME280;24384;51.988;4.644;2023-09-19T05:23:34;100824.53;;;13.50;100.00
38630;BME280;24384;51.988;4.644;2023-09-19T05:25:59;100823.84;;;13.46;100.00
38630;BME280;24384;51.988;4.644;2023-09-19T05:28:25;100823.78;;;13.48;100.00
38630;BME280;24384;51.988;4.644;2023-09-19T05:30:50;100818.25;;;13.52;100.00
38630;BME280;24384;51.988;4.644;2023-09-19T05:33:16;100814.69;;;13.53;100.00
38630;BME280;24384;51.988;4.644;2023-09-19T05:35:43;100815.69;;;13.51;100.00
38630;BME280;24384;51.988;4.644;2023-09-19T05:38:08;100820.28;;;13.47;100.00
38630;BME280;24384;51.988;4.644;2023-09-19T05:40:34;100816.53;;;13.51;100.00
38630;BME280;24384;51.988;4.644;2023-09-19T05:43:00;100819.31;;;13.48;100.00
38630;BME280;24384;51.988;4.644;2023-09-19T05:45:25;100825.94;;;13.58;100.00
38630;BME280;24384;51.988;4.644;2023-09-19T05:47:51;100833.44;;;13.49;100.00
38630;BME280;24384;51.988;4.644;2023-09-19T05:50:21;100828.22;;;13.47;100.00
38630;BME280;24384;51.988;4.644;2023-09-19T05:52:52;100843.63;;;13.58;100.00
38630;BME280;24384;51.988;4.644;2023-09-19T05:55:17;100843.91;;;13.52;100.00
38630;BME280;24384;51.988;4.644;2023-09-19T05:57:43;100832.88;;;13.61;100.00
38630;BME280;24384;51.988;4.644;2023-09-19T06:00:08;100841.03;;;13.56;100.00
38630;BME280;24384;51.988;4.644;2023-09-19T06:02:36;100845.13;;;13.64;100.00
38630;BME280;24384;51.988;4.644;2023-09-19T06:05:04;100844.19;;;13.65;100.00
38630;BME280;24384;51.988;4.644;2023-09-19T06:07:31;100845.78;;;13.69;100.00
38630;BME280;24384;51.988;4.644;2023-09-19T06:10:02;100849.22;;;13.71;100.00
38630;BME280;24384;51.988;4.644;2023-09-19T06:12:28;100846.41;;;13.74;100.00
38630;BME280;24384;51.988;4.644;2023-09-19T06:14:53;100855.22;;;13.74;100.00
38630;BME280;24384;51.988;4.644;2023-09-19T06:17:19;100859.88;;;13.69;100.00
38630;BME280;24384;51.988;4.644;2023-09-19T06:19:44;100851.44;;;13.80;100.00
38630;BME280;24384;51.988;4.644;2023-09-19T06:22:15;100854.94;;;13.81;100.00
38630;BME280;24384;51.988;4.644;2023-09-19T06:24:43;100852.44;;;13.77;100.00
38630;BME280;24384;51.988;4.644;2023-09-19T06:27:08;100845.44;;;13.76;100.00
38630;BME280;24384;51.988;4.644;2023-09-19T06:29:34;100844.19;;;13.84;100.00
38630;BME280;24384;51.988;4.644;2023-09-19T06:31:59;100850.38;;;13.84;100.00
38630;BME280;24384;51.988;4.644;2023-09-19T06:34:24;100853.03;;;13.84;100.00
38630;BME280;24384;51.988;4.644;2023-09-19T06:36:51;100844.25;;;13.82;100.00
38630;BME280;24384;51.988;4.644;2023-09-19T06:39:16;100853.03;;;13.84;100.00
38630;BME280;24384;51.988;4.644;2023-09-19T06:41:42;100850.38;;;13.84;100.00
38630;BME280;24384;51.988;4.644;2023-09-19T06:44:07;100862.41;;;13.91;100.00
38630;BME280;24384;51.988;4.644;2023-09-19T06:46:32;100852.59;;;13.93;100.00
38630;BME280;24384;51.988;4.644;2023-09-19T06:49:00;100858.38;;;14.02;100.00
38630;BME280;24384;51.988;4.644;2023-09-19T06:51:25;100857.41;;;14.04;100.00
38630;BME280;24384;51.988;4.644;2023-09-19T06:53:50;100856.22;;;14.10;100.00
38630;BME280;24384;51.988;4.644;2023-09-19T06:56:19;100860.31;;;14.17;100.00
38630;BME280;24384;51.988;4.644;2023-09-19T06:58:49;100868.28;;;14.17;100.00
38630;BME280;24384;51.988;4.644;2023-09-19T07:01:15;100868.28;;;14.17;100.00
38630;BME280;24384;51.988;4.644;2023-09-19T07:03:40;100859.94;;;14.25;100.00
38630;BME280;24384;51.988;4.644;2023-09-19T07:06:05;100856.22;;;14.29;100.00
38630;BME280;24384;51.988;4.644;2023-09-19T07:08:31;100870.81;;;14.38;100.00
38630;BME280;24384;51.988;4.644;2023-09-19T07:10:56;100860.13;;;14.39;100.00
38630;BME280;24384;51.988;4.644;2023-09-19T07:13:21;100868.66;;;14.46;100.00
38630;BME280;24384;51.988;4.644;2023-09-19T07:15:46;100866.72;;;14.49;100.00
38630;BME280;24384;51.988;4.644;2023-09-19T07:18:16;100863.00;;;14.54;100.00
38630;BME280;24384;51.988;4.644;2023-09-19T07:20:42;100870.88;;;14.55;100.00
38630;BME280;24384;51.988;4.644;2023-09-19T07:23:18;100858.53;;;14.54;100.00
38630;BME280;24384;51.988;4.644;2023-09-19T07:25:44;100872.22;;;14.64;100.00
38630;BME280;24384;51.988;4.644;2023-09-19T07:28:09;100880.25;;;14.62;100.00
38630;BME280;24384;51.988;4.644;2023-09-19T07:30:38;100871.91;;;14.70;100.00
38630;BME280;24384;51.988;4.644;2023-09-19T07:33:04;100877.81;;;14.77;100.00
38630;BME280;24384;51.988;4.644;2023-09-19T07:35:30;100880.47;;;14.94;100.00
38630;BME280;24384;51.988;4.644;2023-09-19T07:37:56;100881.38;;;14.93;100.00
38630;BME280;24384;51.988;4.644;2023-09-19T07:40:23;100868.03;;;14.95;100.00
38630;BME280;24384;51.988;4.644;2023-09-19T07:42:51;100883.88;;;14.96;100.00
38630;BME280;24384;51.988;4.644;2023-09-19T07:45:17;100872.19;;;15.00;100.00
38630;BME280;24384;51.988;4.644;2023-09-19T07:47:50;100877.41;;;15.02;100.00
38630;BME280;24384;51.988;4.644;2023-09-19T07:50:17;100872.09;;;15.02;100.00
38630;BME280;24384;51.988;4.644;2023-09-19T07:52:44;100881.31;;;15.12;100.00
38630;BME280;24384;51.988;4.644;2023-09-19T07:55:10;100880.78;;;15.23;100.00
38630;BME280;24384;51.988;4.644;2023-09-19T07:57:41;100883.63;;;15.36;100.00
38630;BME280;24384;51.988;4.644;2023-09-19T08:00:07;100876.50;;;15.54;100.00
38630;BME280;24384;51.988;4.644;2023-09-19T08:02:37;100886.81;;;15.60;100.00
38630;BME280;24384;51.988;4.644;2023-09-19T08:05:05;100880.75;;;15.74;100.00
38630;BME280;24384;51.988;4.644;2023-09-19T08:07:32;100874.38;;;15.76;100.00
38630;BME280;24384;51.988;4.644;2023-09-19T08:09:57;100872.06;;;15.70;100.00
38630;BME280;24384;51.988;4.644;2023-09-19T08:12:23;100886.22;;;15.71;100.00
38630;BME280;24384;51.988;4.644;2023-09-19T08:14:50;100874.88;;;15.67;100.00
38630;BME280;24384;51.988;4.644;2023-09-19T08:17:16;100867.88;;;15.66;100.00
38630;BME280;24384;51.988;4.644;2023-09-19T08:19:41;100863.44;;;15.83;100.00
38630;BME280;24384;51.988;4.644;2023-09-19T08:22:10;100867.66;;;15.87;100.00
38630;BME280;24384;51.988;4.644;2023-09-19T08:24:35;100858.03;;;16.00;100.00
38630;BME280;24384;51.988;4.644;2023-09-19T08:27:01;100859.94;;;16.14;100.00
38630;BME280;24384;51.988;4.644;2023-09-19T08:29:29;100852.63;;;16.34;100.00
38630;BME280;24384;51.988;4.644;2023-09-19T08:31:55;100867.47;;;16.22;100.00
38630;BME280;24384;51.988;4.644;2023-09-19T08:34:22;100863.38;;;16.16;100.00
38630;BME280;24384;51.988;4.644;2023-09-19T08:36:49;100865.78;;;16.05;100.00
38630;BME280;24384;51.988;4.644;2023-09-19T08:39:15;100859.59;;;15.88;100.00
38630;BME280;24384;51.988;4.644;2023-09-19T08:41:40;100875.22;;;15.79;100.00
38630;BME280;24384;51.988;4.644;2023-09-19T08:44:05;100846.09;;;15.75;100.00
38630;BME280;24384;51.988;4.644;2023-09-19T08:46:34;100866.75;;;15.70;100.00
38630;BME280;24384;51.988;4.644;2023-09-19T08:49:04;100859.88;;;15.66;100.00
38630;BME280;24384;51.988;4.644;2023-09-19T08:54:28;100864.81;;;15.56;100.00
38630;BME280;24384;51.988;4.644;2023-09-19T08:56:55;100855.50;;;15.65;100.00
38630;BME280;24384;51.988;4.644;2023-09-19T08:59:22;100858.94;;;15.67;100.00
38630;BME280;24384;51.988;4.644;2023-09-19T09:01:53;100858.94;;;15.67;100.00
38630;BME280;24384;51.988;4.644;2023-09-19T09:04:19;100867.69;;;15.69;100.00
38630;BME280;24384;51.988;4.644;2023-09-19T09:06:45;100860.94;;;15.80;100.00
38630;BME280;24384;51.988;4.644;2023-09-19T09:09:14;100868.22;;;15.76;100.00
38630;BME280;24384;51.988;4.644;2023-09-19T09:11:40;100860.63;;;16.02;100.00
38630;BME280;24384;51.988;4.644;2023-09-19T09:14:06;100861.06;;;16.10;100.00
38630;BME280;24384;51.988;4.644;2023-09-19T09:16:32;100860.72;;;16.32;100.00
38630;BME280;24384;51.988;4.644;2023-09-19T09:18:57;100863.69;;;16.58;100.00
38630;BME280;24384;51.988;4.644;2023-09-19T09:21:25;100870.97;;;16.70;100.00
38630;BME280;24384;51.988;4.644;2023-09-19T09:23:51;100850.72;;;16.82;100.00
38630;BME280;24384;51.988;4.644;2023-09-19T09:26:17;100855.91;;;16.69;100.00
38630;BME280;24384;51.988;4.644;2023-09-19T09:28:49;100851.69;;;16.81;100.00
38630;BME280;24384;51.988;4.644;2023-09-19T09:31:25;100862.53;;;16.62;100.00
38630;BME280;24384;51.988;4.644;2023-09-19T09:33:56;100854.09;;;16.39;100.00
38630;BME280;24384;51.988;4.644;2023-09-19T09:36:38;100854.72;;;16.28;100.00
38630;BME280;24384;51.988;4.644;2023-09-19T09:39:05;100862.84;;;16.41;100.00
38630;BME280;24384;51.988;4.644;2023-09-19T09:41:50;100857.97;;;16.34;100.00
38630;BME280;24384;51.988;4.644;2023-09-19T09:44:19;100848.47;;;16.60;100.00
38630;BME280;24384;51.988;4.644;2023-09-19T09:46:48;100848.06;;;16.98;100.00
38630;BME280;24384;51.988;4.644;2023-09-19T09:49:27;100850.75;;;17.12;100.00
38630;BME280;24384;51.988;4.644;2023-09-19T09:52:07;100848.34;;;17.08;100.00
38630;BME280;24384;51.988;4.644;2023-09-19T09:54:34;100847.19;;;16.97;100.00
38630;BME280;24384;51.988;4.644;2023-09-19T09:57:07;100831.44;;;17.09;100.00
38630;BME280;24384;51.988;4.644;2023-09-19T09:59:52;100849.34;;;17.21;100.00
38630;BME280;24384;51.988;4.644;2023-09-19T10:02:30;100835.81;;;17.39;100.00
38630;BME280;24384;51.988;4.644;2023-09-19T10:04:59;100846.94;;;17.45;100.00
38630;BME280;24384;51.988;4.644;2023-09-19T10:07:32;100835.72;;;17.54;100.00
38630;BME280;24384;51.988;4.644;2023-09-19T10:10:01;100829.34;;;17.43;100.00
38630;BME280;24384;51.988;4.644;2023-09-19T10:12:47;100836.94;;;17.34;100.00
38630;BME280;24384;51.988;4.644;2023-09-19T10:15:14;100830.41;;;17.26;100.00
38630;BME280;24384;51.988;4.644;2023-09-19T10:17:42;100840.56;;;17.19;100.00
38630;BME280;24384;51.988;4.644;2023-09-19T10:20:11;100814.69;;;17.21;100.00
38630;BME280;24384;51.988;4.644;2023-09-19T10:22:50;100821.66;;;17.38;100.00
38630;BME280;24384;51.988;4.644;2023-09-19T10:25:25;100801.66;;;17.31;99.81
38630;BME280;24384;51.988;4.644;2023-09-19T10:27:52;100812.78;;;17.52;100.00
38630;BME280;24384;51.988;4.644;2023-09-19T10:30:22;100814.97;;;17.45;100.00
38630;BME280;24384;51.988;4.644;2023-09-19T10:32:57;100802.50;;;17.31;100.00
38630;BME280;24384;51.988;4.644;2023-09-19T10:35:23;100812.13;;;17.34;100.00
38630;BME280;24384;51.988;4.644;2023-09-19T10:37:50;100805.81;;;17.78;100.00
38630;BME280;24384;51.988;4.644;2023-09-19T10:40:18;100811.41;;;18.30;97.02
38630;BME280;24384;51.988;4.644;2023-09-19T10:42:48;100800.56;;;18.46;98.45
38630;BME280;24384;51.988;4.644;2023-09-19T10:45:15;100802.19;;;18.21;95.59
38630;BME280;24384;51.988;4.644;2023-09-19T10:47:42;100805.00;;;18.05;97.25
38630;BME280;24384;51.988;4.644;2023-09-19T10:50:08;100793.59;;;17.74;97.93
38630;BME280;24384;51.988;4.644;2023-09-19T10:52:40;100795.44;;;17.59;98.55
38630;BME280;24384;51.988;4.644;2023-09-19T10:55:07;100794.69;;;17.43;99.27
38630;BME280;24384;51.988;4.644;2023-09-19T10:57:35;100778.41;;;17.47;99.72
38630;BME280;24384;51.988;4.644;2023-09-19T11:00:09;100780.34;;;18.01;97.66
38630;BME280;24384;51.988;4.644;2023-09-19T11:05:37;100776.19;;;18.10;97.63
38630;BME280;24384;51.988;4.644;2023-09-19T11:08:07;100783.38;;;18.22;95.58
38630;BME280;24384;51.988;4.644;2023-09-19T11:10:49;100791.69;;;18.18;96.26
38630;BME280;24384;51.988;4.644;2023-09-19T11:13:28;100798.25;;;17.85;98.38
38630;BME280;24384;51.988;4.644;2023-09-19T11:24:27;100774.09;;;18.55;95.82
38630;BME280;24384;51.988;4.644;2023-09-19T11:27:09;100764.25;;;18.43;95.71
38630;BME280;24384;51.988;4.644;2023-09-19T11:29:35;100760.28;;;18.08;96.84
38630;BME280;24384;51.988;4.644;2023-09-19T11:32:14;100794.94;;;17.67;97.25
38630;BME280;24384;51.988;4.644;2023-09-19T11:34:45;100769.44;;;17.63;99.37
38630;BME280;24384;51.988;4.644;2023-09-19T11:40:06;100755.22;;;17.62;100.00
38630;BME280;24384;51.988;4.644;2023-09-19T11:48:13;100765.66;;;17.24;99.87
38630;BME280;24384;51.988;4.644;2023-09-19T11:50:42;100765.94;;;17.19;100.00
38630;BME280;24384;51.988;4.644;2023-09-19T11:53:10;100769.47;;;17.20;100.00
38630;BME280;24384;51.988;4.644;2023-09-19T11:55:38;100758.72;;;17.21;100.00
38630;BME280;24384;51.988;4.644;2023-09-19T11:58:03;100766.06;;;17.32;100.00
38630;BME280;24384;51.988;4.644;2023-09-19T12:00:30;100770.03;;;17.25;100.00
38630;BME280;24384;51.988;4.644;2023-09-19T12:02:58;100770.41;;;17.33;100.00
38630;BME280;24384;51.988;4.644;2023-09-19T12:05:31;100787.94;;;17.37;100.00
38630;BME280;24384;51.988;4.644;2023-09-19T12:07:59;100780.13;;;17.34;100.00
38630;BME280;24384;51.988;4.644;2023-09-19T12:10:24;100781.94;;;17.33;100.00
38630;BME280;24384;51.988;4.644;2023-09-19T12:12:50;100764.28;;;17.74;100.00
38630;BME280;24384;51.988;4.644;2023-09-19T12:15:23;100770.38;;;17.91;98.99
38630;BME280;24384;51.988;4.644;2023-09-19T12:17:54;100770.63;;;17.86;98.39
38630;BME280;24384;51.988;4.644;2023-09-19T12:20:19;100768.81;;;17.86;99.73
38630;BME280;24384;51.988;4.644;2023-09-19T12:22:46;100765.56;;;17.96;99.54
38630;BME280;24384;51.988;4.644;2023-09-19T12:25:13;100749.88;;;18.18;100.00
38630;BME280;24384;51.988;4.644;2023-09-19T12:27:42;100758.72;;;18.19;98.45
38630;BME280;24384;51.988;4.644;2023-09-19T12:30:10;100756.16;;;18.17;100.00
38630;BME280;24384;51.988;4.644;2023-09-19T12:32:36;100749.50;;;18.10;98.81
38630;BME280;24384;51.988;4.644;2023-09-19T12:35:01;100770.66;;;18.13;100.00
38630;BME280;24384;51.988;4.644;2023-09-19T12:37:33;100764.41;;;18.27;99.45
38630;BME280;24384;51.988;4.644;2023-09-19T12:40:06;100800.59;;;18.18;98.11
38630;BME280;24384;51.988;4.644;2023-09-19T12:42:43;100781.97;;;18.44;99.04
38630;BME280;24384;51.988;4.644;2023-09-19T12:45:10;100791.69;;;18.85;98.53
38630;BME280;24384;51.988;4.644;2023-09-19T12:47:38;100777.69;;;18.94;97.90
38630;BME280;24384;51.988;4.644;2023-09-19T12:50:15;100766.09;;;18.81;96.79
38630;BME280;24384;51.988;4.644;2023-09-19T12:52:45;100770.81;;;18.77;98.51
38630;BME280;24384;51.988;4.644;2023-09-19T12:55:24;100770.97;;;19.02;95.72
38630;BME280;24384;51.988;4.644;2023-09-19T13:00:32;100767.94;;;19.45;92.29
38630;BME280;24384;51.988;4.644;2023-09-19T13:03:14;100760.13;;;18.77;95.48
38630;BME280;24384;51.988;4.644;2023-09-19T13:05:50;100760.44;;;18.60;99.86
38630;BME280;24384;51.988;4.644;2023-09-19T13:08:25;100754.94;;;18.36;96.84
38630;BME280;24384;51.988;4.644;2023-09-19T13:11:16;100757.16;;;18.29;97.63
38630;BME280;24384;51.988;4.644;2023-09-19T13:13:47;100762.25;;;18.19;98.09
38630;BME280;24384;51.988;4.644;2023-09-19T13:16:20;100765.81;;;18.05;98.08
38630;BME280;24384;51.988;4.644;2023-09-19T13:18:52;100770.41;;;18.03;98.87
38630;BME280;24384;51.988;4.644;2023-09-19T13:21:32;100763.31;;;17.89;100.00
38630;BME280;24384;51.988;4.644;2023-09-19T13:24:19;100759.78;;;17.89;100.00
38630;BME280;24384;51.988;4.644;2023-09-19T13:26:44;100756.03;;;18.06;99.99